Time;durP1;ratioP1;P1;durP2;ratioP2;P2;SDS_P1;SDS_P2;PMS_P1;PMS_P2;Temp;Humidity;BMP_temperature;BMP_pressure;BME280_temperature;BME280_humidity;BME280_pressure;Samples;Min_cycle;Max_cycle;Signal;HPM_P1;HPM_P2
2022/09/15 00:01:22;;;;;;;53.83;27.48;;;;;;;15.73;100.00;99664.44;8329268;28;20300;-54
2022/09/15 00:05:22;;;;;;;60.15;28.30;;;;;;;15.77;100.00;99664.91;8328442;28;20041;-53
2022/09/15 00:09:22;;;;;;;52.17;27.15;;;;;;;15.77;100.00;99669.50;8328618;28;20049;-54
2022/09/15 00:13:24;;;;;;;47.88;25.67;;;;;;;15.80;100.00;99669.13;8328493;28;20040;-51
2022/09/15 00:17:26;;;;;;;53.80;26.80;;;;;;;15.77;100.00;99668.47;8328379;28;20560;-54
2022/09/15 00:21:30;;;;;;;56.13;26.73;;;;;;;15.80;100.00;99672.69;8328280;28;20031;-53
2022/09/15 00:25:30;;;;;;;50.88;26.48;;;;;;;15.77;100.00;99676.63;8328450;28;20179;-54
2022/09/15 00:29:30;;;;;;;50.22;24.45;;;;;;;15.68;100.00;99672.34;8327971;28;20033;-55
2022/09/15 00:33:31;;;;;;;46.60;25.08;;;;;;;15.69;100.00;99671.34;8325446;28;20060;-54
2022/09/15 00:37:32;;;;;;;46.40;23.50;;;;;;;15.67;100.00;99676.13;8326364;28;20044;-54
2022/09/15 00:41:33;;;;;;;43.67;23.55;;;;;;;15.73;100.00;99679.13;8327293;28;20025;-53
2022/09/15 00:45:35;;;;;;;44.45;23.35;;;;;;;15.66;100.00;99679.91;8327660;28;20049;-53
2022/09/15 00:49:38;;;;;;;44.22;22.83;;;;;;;15.65;100.00;99678.19;8327481;28;20057;-53
2022/09/15 00:53:39;;;;;;;51.63;23.55;;;;;;;15.65;100.00;99678.19;8327001;28;20037;-54
2022/09/15 00:57:53;;;;;;;44.70;23.63;;;;;;;15.65;100.00;99683.63;8327484;28;20037;-52
2022/09/15 01:02:02;;;;;;;51.13;24.58;;;;;;;15.65;100.00;99683.63;8320996;28;20527;-51
2022/09/15 01:06:12;;;;;;;51.00;25.52;;;;;;;15.71;100.00;99682.88;8327018;28;20053;-52
2022/09/15 01:10:24;;;;;;;49.90;23.60;;;;;;;15.73;100.00;99682.66;8326540;28;20087;-51
2022/09/15 01:14:25;;;;;;;49.97;24.42;;;;;;;15.73;100.00;99686.25;8326969;28;20042;-53
2022/09/15 01:18:49;;;;;;;47.20;24.17;;;;;;;15.71;100.00;99680.13;8326574;28;20032;-54
2022/09/15 01:23:11;;;;;;;42.65;23.33;;;;;;;15.76;100.00;99684.19;8325984;28;20135;-53
2022/09/15 01:27:23;;;;;;;49.38;24.35;;;;;;;15.76;100.00;99678.72;8326718;28;20486;-50
2022/09/15 01:31:29;;;;;;;43.78;22.38;;;;;;;15.77;100.00;99684.00;8325750;28;20057;-53
2022/09/15 01:35:43;;;;;;;39.78;22.67;;;;;;;15.76;100.00;99681.47;8326268;28;20165;-54
2022/09/15 01:39:46;;;;;;;52.60;22.60;;;;;;;15.80;100.00;99685.47;8325759;28;20120;-52
2022/09/15 01:43:58;;;;;;;43.30;23.13;;;;;;;15.79;100.00;99683.78;8325689;28;20462;-54
2022/09/15 01:48:01;;;;;;;40.25;22.33;;;;;;;15.77;100.00;99682.09;8325716;28;20563;-50
2022/09/15 01:52:01;;;;;;;40.70;21.92;;;;;;;15.76;100.00;99685.00;8324960;28;20034;-54
2022/09/15 01:56:07;;;;;;;46.42;22.33;;;;;;;15.77;100.00;99684.81;8325569;28;20084;-53
2022/09/15 02:00:08;;;;;;;46.03;22.42;;;;;;;15.74;100.00;99682.47;8325282;28;20121;-52
2022/09/15 02:04:26;;;;;;;38.83;21.42;;;;;;;15.66;100.00;99685.34;8325075;28;20057;-52
2022/09/15 02:08:37;;;;;;;49.97;22.83;;;;;;;15.52;100.00;99682.63;8325263;28;20492;-51
2022/09/15 02:12:44;;;;;;;46.67;22.90;;;;;;;15.41;100.00;99681.25;8324794;28;20025;-50
2022/09/15 02:16:48;;;;;;;40.25;21.70;;;;;;;15.28;100.00;99691.16;8325204;28;20025;-51
2022/09/15 02:20:57;;;;;;;43.60;22.45;;;;;;;15.21;100.00;99684.75;8324688;28;20046;-51
2022/09/15 02:25:07;;;;;;;49.95;23.75;;;;;;;15.08;100.00;99680.00;8324997;28;20037;-51
2022/09/15 02:29:12;;;;;;;45.95;22.20;;;;;;;15.04;100.00;99678.66;8325424;28;20030;-53
2022/09/15 02:33:18;;;;;;;47.15;24.33;;;;;;;15.10;100.00;99675.19;8325039;28;20060;-53
2022/09/15 02:37:21;;;;;;;50.03;24.77;;;;;;;15.12;100.00;99675.00;8325116;28;20057;-49
2022/09/15 02:41:22;;;;;;;55.97;26.95;;;;;;;15.08;100.00;99690.88;8324488;28;20036;-50
2022/09/15 02:45:24;;;;;;;55.78;26.98;;;;;;;15.11;100.00;99679.63;8325012;28;20471;-50
2022/09/15 02:49:24;;;;;;;59.05;29.63;;;;;;;15.16;100.00;99687.22;8324432;28;20037;-53
2022/09/15 02:53:24;;;;;;;60.10;29.27;;;;;;;15.14;100.00;99684.69;8324688;28;20041;-53
2022/09/15 02:57:25;;;;;;;56.22;28.88;;;;;;;15.13;100.00;99687.59;8324945;28;20036;-52
2022/09/15 03:01:33;;;;;;;59.53;28.73;;;;;;;15.01;100.00;99684.50;8324402;28;20037;-50
2022/09/15 03:05:33;;;;;;;63.60;27.98;;;;;;;14.90;100.00;99682.25;8324597;28;20548;-51
2022/09/15 03:09:34;;;;;;;52.75;26.83;;;;;;;14.82;100.00;99687.78;8324539;28;20418;-50
2022/09/15 03:13:34;;;;;;;56.53;27.58;;;;;;;14.71;100.00;99687.41;8325020;28;20061;-50
2022/09/15 03:17:36;;;;;;;58.97;27.75;;;;;;;14.60;100.00;99686.00;8324506;28;20041;-50
2022/09/15 03:21:37;;;;;;;62.53;27.45;;;;;;;14.45;100.00;99698.75;8323786;28;20030;-49
2022/09/15 03:25:37;;;;;;;56.25;26.73;;;;;;;14.35;100.00;99703.59;8324122;28;20043;-49
2022/09/15 03:29:37;;;;;;;61.13;28.83;;;;;;;14.28;100.00;99702.66;8324034;28;20383;-50
2022/09/15 03:33:39;;;;;;;62.20;27.80;;;;;;;14.25;100.00;99705.75;8330170;28;20026;-50
2022/09/15 03:37:39;;;;;;;62.95;26.70;;;;;;;14.27;100.00;99698.22;8329852;28;20116;-51
2022/09/15 03:41:40;;;;;;;63.28;27.67;;;;;;;14.26;100.00;99688.41;8329478;28;20032;-49
2022/09/15 03:45:40;;;;;;;64.40;26.63;;;;;;;14.27;100.00;99695.53;8329860;28;20061;-50
2022/09/15 03:49:40;;;;;;;67.57;26.95;;;;;;;14.21;100.00;99690.78;8328894;28;20037;-52
2022/09/15 03:53:41;;;;;;;58.00;26.67;;;;;;;14.28;100.00;99702.66;8329223;28;20080;-51
2022/09/15 03:57:41;;;;;;;71.75;28.55;;;;;;;14.27;100.00;99700.94;8329023;28;20041;-49
2022/09/15 04:01:42;;;;;;;70.15;28.42;;;;;;;14.27;100.00;99711.81;8329092;28;20513;-49
2022/09/15 04:05:42;;;;;;;70.25;28.08;;;;;;;14.16;100.00;99703.25;8325847;28;20041;-50
2022/09/15 04:09:43;;;;;;;63.58;28.00;;;;;;;13.99;100.00;99702.53;8317635;28;20038;-51
2022/09/15 04:13:44;;;;;;;60.72;26.60;;;;;;;13.97;100.00;99703.75;8315505;28;20384;-50
2022/09/15 04:17:45;;;;;;;58.28;26.45;;;;;;;13.93;100.00;99692.38;8322971;28;20037;-51
2022/09/15 04:21:46;;;;;;;62.08;26.52;;;;;;;14.01;100.00;99700.50;8319927;28;20531;-51
2022/09/15 04:25:55;;;;;;;64.20;28.10;;;;;;;14.07;100.00;99699.75;8316857;28;20042;-51
2022/09/15 04:29:56;;;;;;;68.07;28.85;;;;;;;14.16;100.00;99703.25;8318445;28;20034;-51
2022/09/15 04:33:56;;;;;;;68.40;27.13;;;;;;;13.98;100.00;99700.84;8325134;28;20145;-53
2022/09/15 04:37:57;;;;;;;71.97;28.83;;;;;;;13.97;100.00;99698.31;8324507;28;20166;-51
2022/09/15 04:41:57;;;;;;;62.72;27.17;;;;;;;13.98;100.00;99702.72;8324013;28;20498;-50
2022/09/15 04:45:58;;;;;;;66.47;29.65;;;;;;;14.08;100.00;99706.00;8320938;28;20041;-49
2022/09/15 04:49:58;;;;;;;65.40;29.08;;;;;;;14.20;100.00;99702.69;8322006;28;20044;-51
2022/09/15 04:53:59;;;;;;;65.20;28.33;;;;;;;14.32;100.00;99695.81;8324396;28;20068;-52
2022/09/15 04:58:01;;;;;;;64.15;27.88;;;;;;;14.50;100.00;99693.59;8319625;28;20076;-52
2022/09/15 05:02:36;;;;;;;55.75;26.90;;;;;;;14.58;100.00;99693.50;8319590;28;20050;-51
2022/09/15 05:06:37;;;;;;;65.68;29.17;;;;;;;14.63;100.00;99696.53;8321788;28;20066;-50
2022/09/15 05:10:38;;;;;;;67.03;29.40;;;;;;;14.72;100.00;99700.84;8333646;28;20137;-50
2022/09/15 05:14:38;;;;;;;65.63;30.70;;;;;;;14.62;100.00;99705.72;8315904;28;20033;-54
2022/09/15 05:18:40;;;;;;;64.55;29.45;;;;;;;14.65;100.00;99705.34;8317862;28;20053;-49
2022/09/15 05:22:41;;;;;;;79.25;33.60;;;;;;;14.68;100.00;99718.59;8315036;28;20048;-50
2022/09/15 05:26:41;;;;;;;74.40;32.50;;;;;;;14.72;100.00;99717.16;8319564;28;20084;-50
2022/09/15 05:30:41;;;;;;;75.20;32.17;;;;;;;14.69;100.00;99722.97;8313234;28;20053;-51
2022/09/15 05:34:42;;;;;;;67.88;28.80;;;;;;;14.88;100.00;99719.69;8312619;28;20065;-50
2022/09/15 05:38:43;;;;;;;66.40;28.95;;;;;;;14.82;100.00;99712.28;8315610;28;20048;-51
2022/09/15 05:42:43;;;;;;;64.43;28.73;;;;;;;14.79;100.00;99718.09;8313549;28;20079;-52
2022/09/15 05:46:51;;;;;;;65.15;29.40;;;;;;;14.79;100.00;99720.00;8321345;28;20034;-49
2022/09/15 05:50:53;;;;;;;56.83;27.80;;;;;;;14.83;100.00;99727.59;8323974;28;20056;-50
2022/09/15 05:54:53;;;;;;;59.78;25.98;;;;;;;14.93;100.00;99725.44;8324477;28;20041;-53
2022/09/15 05:58:54;;;;;;;67.68;28.27;;;;;;;15.00;100.00;99731.81;8323133;28;20495;-53
2022/09/15 06:02:54;;;;;;;60.28;26.85;;;;;;;15.09;100.00;99741.56;8321908;28;20048;-50
2022/09/15 06:06:55;;;;;;;51.05;23.77;;;;;;;15.15;100.00;99745.41;8322658;28;20403;-50
2022/09/15 06:11:01;;;;;;;58.42;23.80;;;;;;;15.25;100.00;99740.53;8324504;28;20045;-51
2022/09/15 06:15:01;;;;;;;51.08;20.67;;;;;;;15.30;100.00;99749.81;8325504;28;20037;-53
2022/09/15 06:19:02;;;;;;;44.78;20.23;;;;;;;15.42;100.00;99742.91;8325354;28;20520;-50
2022/09/15 06:23:03;;;;;;;39.80;18.48;;;;;;;15.51;100.00;99751.78;8324738;28;20042;-54
2022/09/15 06:27:03;;;;;;;42.13;18.83;;;;;;;15.57;100.00;99757.34;8325334;28;20034;-52
2022/09/15 06:31:08;;;;;;;41.72;17.17;;;;;;;15.62;100.00;99749.41;8323516;28;20259;-53
2022/09/15 06:35:08;;;;;;;38.65;17.05;;;;;;;15.77;100.00;99763.84;8336743;28;20502;-51
2022/09/15 06:39:09;;;;;;;30.35;16.23;;;;;;;15.87;100.00;99765.44;8329136;28;20405;-54
2022/09/15 06:43:09;;;;;;;36.10;16.80;;;;;;;15.95;100.00;99766.13;8343590;28;20095;-53
2022/09/15 06:47:14;;;;;;;32.42;16.00;;;;;;;16.20;100.00;99772.09;8344082;28;20568;-52
2022/09/15 06:51:16;;;;;;;32.97;15.00;;;;;;;16.49;100.00;99772.81;8339091;28;20127;-50
2022/09/15 06:55:16;;;;;;;32.30;15.20;;;;;;;16.61;100.00;99778.56;8343882;28;20079;-53
2022/09/15 06:59:17;;;;;;;27.33;15.13;;;;;;;16.87;100.00;99789.72;8348332;28;20064;-50
2022/09/15 07:03:17;;;;;;;27.88;14.65;;;;;;;17.18;100.00;99781.94;8355933;28;20128;-51
2022/09/15 07:07:17;;;;;;;35.83;15.40;;;;;;;17.17;100.00;99783.00;8352033;28;20037;-52
2022/09/15 07:11:19;;;;;;;31.45;14.65;;;;;;;17.22;100.00;99794.16;8328373;28;20766;-53
2022/09/15 07:15:19;;;;;;;24.10;14.65;;;;;;;17.12;100.00;99796.41;8330646;28;20041;-51
2022/09/15 07:19:20;;;;;;;30.13;14.40;;;;;;;16.97;100.00;99803.84;8330084;28;20041;-51
2022/09/15 07:23:20;;;;;;;29.88;14.32;;;;;;;16.81;100.00;99812.34;8329881;28;20438;-52
2022/09/15 07:27:25;;;;;;;37.65;15.23;;;;;;;17.01;100.00;99807.88;8329839;28;20147;-53
2022/09/15 07:31:27;;;;;;;;;;;;;;;17.06;100.00;99817.19;8330118;28;20034;-54
2022/09/15 07:35:28;;;;;;;31.27;16.77;;;;;;;16.99;100.00;99816.25;8330089;28;19960;-51
2022/09/15 07:39:28;;;;;;;28.03;16.03;;;;;;;17.07;100.00;99809.81;8329304;28;20026;-53
2022/09/15 07:43:28;;;;;;;31.10;16.73;;;;;;;17.13;100.00;99819.94;8329879;28;20292;-52
2022/09/15 07:47:29;;;;;;;33.77;17.37;;;;;;;17.19;100.00;99813.69;8329638;28;20075;-51
2022/09/15 07:51:30;;;;;;;30.25;16.58;;;;;;;17.29;100.00;99816.88;8328891;28;20280;-53
2022/09/15 07:55:31;;;;;;;26.48;15.30;;;;;;;17.58;100.00;99822.16;8328543;28;20609;-53
2022/09/15 07:59:32;;;;;;;29.05;16.55;;;;;;;17.63;100.00;99821.53;8329067;28;20491;-51
2022/09/15 08:03:32;;;;;;;28.00;17.77;;;;;;;17.74;100.00;99829.16;8329171;28;20469;-52
2022/09/15 08:07:33;;;;;;;37.00;17.25;;;;;;;17.72;100.00;99821.19;8329061;28;20041;-51
2022/09/15 08:11:33;;;;;;;25.60;14.70;;;;;;;17.72;100.00;99821.19;8328887;28;20403;-52
2022/09/15 08:15:36;;;;;;;26.25;15.25;;;;;;;17.88;100.00;99833.66;8328447;28;20272;-54
2022/09/15 08:19:36;;;;;;;35.00;15.20;;;;;;;18.20;100.00;99833.75;8328636;28;20048;-51
2022/09/15 08:23:37;;;;;;;24.40;13.35;;;;;;;18.35;100.00;99853.59;8328457;28;20483;-51
2022/09/15 08:27:38;;;;;;;24.60;13.88;;;;;;;18.24;100.00;99862.38;8328233;28;20507;-50
2022/09/15 08:31:48;;;;;;;22.08;14.60;;;;;;;18.14;100.00;99866.59;8327985;28;20475;-53
2022/09/15 08:35:49;;;;;;;24.60;14.07;;;;;;;18.18;100.00;99860.50;8326571;28;20557;-52
2022/09/15 08:39:50;;;;;;;22.10;13.80;;;;;;;17.95;100.00;99873.66;8327853;28;20482;-50
2022/09/15 08:44:17;;;;;;;30.35;13.80;;;;;;;17.72;100.00;99878.59;8321574;28;20302;-54
2022/09/15 08:48:23;;;;;;;25.10;14.63;;;;;;;17.50;100.00;99885.16;8319003;28;20056;-54
2022/09/15 08:52:41;;;;;;;30.05;16.30;;;;;;;17.64;100.00;99889.69;8327559;28;20037;-53
2022/09/15 08:56:42;;;;;;;30.83;18.08;;;;;;;17.94;100.00;99896.59;8327858;28;20037;-53
2022/09/15 09:00:45;;;;;;;28.33;16.75;;;;;;;18.36;100.00;99893.59;8326847;28;20032;-53
2022/09/15 09:05:12;;;;;;;23.55;14.38;;;;;;;18.83;100.00;99899.03;8325736;28;20411;-53
2022/09/15 09:09:23;;;;;;;29.70;18.48;;;;;;;19.07;100.00;99892.94;8325989;28;20065;-53
2022/09/15 09:13:52;;;;;;;29.63;16.98;;;;;;;19.23;99.01;99892.50;8328549;28;20040;-53
2022/09/15 09:22:30;;;;;;;27.20;16.52;;;;;;;20.44;93.57;99908.28;8295779;28;20497;-52
2022/09/15 09:26:34;;;;;;;23.80;13.65;;;;;;;20.35;87.00;99910.44;8287792;28;20046;-49
2022/09/15 09:30:35;;;;;;;;;;;;;;;20.28;89.36;99914.28;8288136;28;20049;-49
2022/09/15 09:34:44;;;;;;;24.02;14.13;;;;;;;20.11;91.32;99913.03;8288189;28;19921;-50
2022/09/15 09:38:47;;;;;;;20.95;11.73;;;;;;;20.05;89.90;99920.25;8287467;28;20454;-49
2022/09/15 09:42:47;;;;;;;21.35;11.85;;;;;;;19.39;88.25;99919.53;8287168;28;20070;-50
2022/09/15 09:46:48;;;;;;;22.95;12.75;;;;;;;19.80;90.57;99927.50;8287439;28;20057;-49
2022/09/15 09:50:49;;;;;;;17.27;9.43;;;;;;;19.49;84.87;99919.94;8286898;28;20034;-52
2022/09/15 09:54:59;;;;;;;22.42;12.20;;;;;;;19.06;91.23;99918.63;8287737;28;20034;-50
2022/09/15 09:59:01;;;;;;;22.10;11.55;;;;;;;19.15;92.79;99917.38;8286735;28;20038;-53
2022/09/15 10:03:20;;;;;;;17.15;11.35;;;;;;;19.75;92.03;99912.72;8287116;28;20042;-53
2022/09/15 10:07:24;;;;;;;20.88;10.18;;;;;;;19.77;87.53;99921.56;8315818;28;20042;-51
2022/09/15 10:15:59;;;;;;;18.17;9.18;;;;;;;19.74;89.26;99911.03;8294942;28;20813;-51
2022/09/15 10:19:59;;;;;;;14.68;6.90;;;;;;;19.30;86.64;99911.69;8288047;28;20030;-53
2022/09/15 10:24:29;;;;;;;12.45;5.68;;;;;;;19.48;88.26;99907.28;8288297;28;20041;-53
2022/09/15 10:28:29;;;;;;;23.63;8.50;;;;;;;19.67;89.36;99901.97;8281700;28;20031;-52
2022/09/15 10:32:30;;;;;;;8.52;6.10;;;;;;;19.70;86.49;99907.03;8287584;28;20045;-50
2022/09/15 10:36:31;;;;;;;12.43;6.35;;;;;;;19.77;87.84;99908.72;8287428;28;20101;-51
2022/09/15 10:40:53;;;;;;;10.75;4.70;;;;;;;19.62;87.95;99901.75;8287314;28;20126;-49
2022/09/15 10:45:09;;;;;;;8.38;3.88;;;;;;;19.83;85.23;99909.75;8287449;28;20034;-49
2022/09/15 10:49:35;;;;;;;11.00;7.15;;;;;;;19.76;87.98;99906.19;8286694;28;20058;-50
2022/09/15 10:54:01;;;;;;;13.43;6.65;;;;;;;19.84;86.70;99911.41;8285895;28;20034;-52
2022/09/15 10:58:37;;;;;;;10.50;5.72;;;;;;;20.42;85.64;99905.75;8300883;28;20030;-51
2022/09/15 11:07:37;;;;;;;13.23;5.53;;;;;;;20.92;81.12;99901.25;8385654;27;20478;-51
2022/09/15 11:16:08;;;;;;;9.00;4.20;;;;;;;21.48;78.87;99907.59;8394991;27;20398;-50
2022/09/15 11:29:09;;;;;;;9.30;4.15;;;;;;;21.09;77.35;99908.75;8389630;27;20814;-49
2022/09/15 11:33:24;;;;;;;8.15;3.17;;;;;;;20.66;75.90;99912.38;8385987;28;20513;-51
2022/09/15 11:37:33;;;;;;;8.55;3.15;;;;;;;20.38;76.86;99915.50;8386203;28;20345;-53
2022/09/15 11:41:39;;;;;;;8.02;3.00;;;;;;;20.23;77.60;99927.81;8386022;28;20476;-52
2022/09/15 11:45:45;;;;;;;4.22;2.15;;;;;;;20.56;75.82;99921.09;8386214;28;20024;-51
2022/09/15 11:50:13;;;;;;;3.92;2.50;;;;;;;20.74;76.43;99926.69;8375890;28;20033;-50
2022/09/15 11:54:33;;;;;;;8.45;2.72;;;;;;;20.81;74.73;99916.53;8385804;28;20055;-49
2022/09/15 11:59:13;;;;;;;6.50;2.50;;;;;;;21.12;77.68;99923.94;8384936;28;20110;-49
2022/09/15 12:03:25;;;;;;;6.35;2.17;;;;;;;20.61;73.29;99929.53;8379293;28;20064;-50
2022/09/15 12:07:31;;;;;;;6.68;2.38;;;;;;;20.69;77.08;99929.28;8371554;28;20032;-49
2022/09/15 12:11:35;;;;;;;6.75;2.55;;;;;;;20.31;76.57;99927.56;8370545;28;20045;-49
2022/09/15 12:15:37;;;;;;;8.20;2.33;;;;;;;20.04;77.44;99931.44;8374749;28;20075;-50
2022/09/15 12:19:47;;;;;;;6.72;2.08;;;;;;;20.14;79.43;99929.09;8380283;28;20569;-53
2022/09/15 12:24:13;;;;;;;4.00;2.03;;;;;;;20.07;75.62;99923.59;8368371;28;20040;-50
2022/09/15 12:32:33;;;;;;;8.07;1.95;;;;;;;20.52;75.20;99919.84;8391974;27;20395;-51
2022/09/15 12:36:45;;;;;;;4.38;2.00;;;;;;;20.59;73.87;99925.31;8382551;28;20036;-50
2022/09/15 12:40:56;;;;;;;4.03;1.90;;;;;;;20.54;75.57;99925.97;8372993;28;20041;-49
2022/09/15 12:45:01;;;;;;;9.90;1.73;;;;;;;20.51;74.64;99926.41;8367506;28;20568;-50
2022/09/15 12:49:02;;;;;;;6.15;1.30;;;;;;;20.60;74.31;99929.75;8372392;28;20584;-50
2022/09/15 12:53:18;;;;;;;5.03;1.60;;;;;;;20.34;72.92;99927.16;8366408;28;20461;-51
2022/09/15 12:57:25;;;;;;;8.38;1.92;;;;;;;20.29;75.45;99937.91;8378616;28;20032;-50
2022/09/15 13:01:29;;;;;;;7.80;1.60;;;;;;;20.07;77.00;99931.00;8383047;28;20029;-53
2022/09/15 13:10:34;;;;;;;3.88;1.73;;;;;;;19.94;76.09;99936.53;8342942;27;20391;-50
2022/09/15 13:14:40;;;;;;;8.23;1.65;;;;;;;19.91;76.32;99935.03;8345715;28;20041;-50
2022/09/15 13:18:43;;;;;;;3.20;1.63;;;;;;;19.94;77.04;99939.28;8308701;28;20049;-49
2022/09/15 13:22:48;;;;;;;8.98;2.20;;;;;;;19.82;77.21;99932.75;8312323;28;20072;-55
2022/09/15 13:26:54;;;;;;;7.30;2.72;;;;;;;19.61;78.23;99927.53;8301534;28;20061;-49
2022/09/15 13:35:40;;;;;;;3.88;1.60;;;;;;;19.55;79.63;99936.59;8274031;27;20382;-51
2022/09/15 13:40:15;;;;;;;6.05;1.85;;;;;;;19.51;80.16;99929.84;8272303;28;20034;-49
2022/09/15 13:44:38;;;;;;;3.70;1.33;;;;;;;19.38;79.86;99923.31;8282249;28;20034;-49
2022/09/15 13:53:19;;;;;;;7.30;1.73;;;;;;;19.36;80.03;99928.16;8455209;27;20451;-50
2022/09/15 13:57:19;;;;;;;4.53;1.33;;;;;;;19.30;79.83;99915.31;8437598;27;20035;-50
2022/09/15 14:01:21;;;;;;;4.80;1.50;;;;;;;19.14;79.14;99920.31;8436168;27;20043;-49
2022/09/15 14:05:24;;;;;;;5.82;1.38;;;;;;;18.93;79.92;99918.63;8445996;27;20036;-51
2022/09/15 14:09:32;;;;;;;4.85;1.83;;;;;;;18.81;81.59;99920.28;8446796;27;20044;-51
2022/09/15 14:13:35;;;;;;;4.43;1.38;;;;;;;18.44;86.00;99920.81;8436090;27;20032;-49
2022/09/15 14:17:44;;;;;;;9.75;1.52;;;;;;;18.12;86.20;99921.50;8413390;27;20533;-51
2022/09/15 14:21:47;;;;;;;5.20;1.15;;;;;;;18.02;87.34;99923.75;8405385;27;20040;-48
2022/09/15 14:25:48;;;;;;;5.47;1.10;;;;;;;17.90;88.44;99925.38;8389216;27;20040;-49
2022/09/15 14:29:54;;;;;;;5.07;1.33;;;;;;;17.81;85.83;99932.06;8410614;27;20283;-49
2022/09/15 14:33:55;;;;;;;2.97;1.10;;;;;;;17.74;84.31;99936.66;8411268;27;20356;-49
2022/09/15 14:37:57;;;;;;;4.05;1.02;;;;;;;17.66;83.69;99939.56;8406595;27;20032;-51
2022/09/15 14:41:58;;;;;;;4.72;0.95;;;;;;;17.62;85.25;99949.19;8409491;27;20037;-50
2022/09/15 14:46:17;;;;;;;7.43;1.90;;;;;;;17.55;84.81;99945.56;8412072;27;20029;-50
2022/09/15 14:50:20;;;;;;;2.85;1.40;;;;;;;17.55;90.49;99942.81;8409685;27;20068;-50
2022/09/15 14:54:27;;;;;;;7.20;1.20;;;;;;;17.50;89.72;99951.63;8400642;27;20488;-53
2022/09/15 14:58:41;;;;;;;3.70;1.30;;;;;;;17.60;91.05;99946.63;8409825;27;20040;-49
2022/09/15 15:07:18;;;;;;;5.25;1.33;;;;;;;17.66;88.29;99942.28;8290264;28;20386;-54
2022/09/15 15:11:20;;;;;;;6.97;1.40;;;;;;;17.68;87.89;99953.84;8314059;28;20034;-53
2022/09/15 15:15:21;;;;;;;6.28;1.27;;;;;;;17.66;86.51;99950.50;8293956;28;20038;-53
2022/09/15 15:19:32;;;;;;;2.60;0.80;;;;;;;17.72;83.02;99938.75;8304810;28;20567;-52
2022/09/15 15:23:32;;;;;;;4.63;1.00;;;;;;;17.73;85.76;99942.31;8297806;28;20041;-53
2022/09/15 15:31:45;;;;;;;7.95;1.20;;;;;;;17.78;83.64;99937.09;8313526;27;20773;-50
2022/09/15 15:35:47;;;;;;;3.05;0.80;;;;;;;17.79;82.47;99939.63;8315126;28;20061;-49
2022/09/15 15:39:48;;;;;;;3.65;1.30;;;;;;;17.83;82.20;99945.53;8315929;28;20043;-49
2022/09/15 15:44:07;;;;;;;6.25;1.00;;;;;;;17.84;80.66;99950.78;8310148;28;20034;-49
2022/09/15 15:48:08;;;;;;;6.55;1.27;;;;;;;17.88;79.64;99949.38;8315642;28;20087;-49
2022/09/15 15:52:09;;;;;;;3.05;1.00;;;;;;;17.95;78.85;99954.84;8308100;28;20112;-50
2022/09/15 15:56:09;;;;;;;7.93;1.87;;;;;;;17.94;79.03;99954.03;8312521;28;20041;-49
2022/09/15 16:00:18;;;;;;;6.88;1.15;;;;;;;17.92;80.81;99952.53;8311299;28;20713;-49
2022/09/15 16:04:18;;;;;;;3.40;1.00;;;;;;;17.89;80.73;99953.78;8310974;28;20041;-51
2022/09/15 16:08:30;;;;;;;4.45;0.95;;;;;;;17.83;79.73;99951.84;8312485;28;20123;-49
2022/09/15 16:12:31;;;;;;;4.97;0.90;;;;;;;17.92;81.05;99950.66;8298087;28;20041;-49
2022/09/15 16:16:31;;;;;;;5.18;0.70;;;;;;;17.88;80.19;99951.25;8308883;28;20049;-50
2022/09/15 16:20:32;;;;;;;6.10;1.48;;;;;;;17.85;81.32;99957.13;8312372;28;20511;-51
2022/09/15 16:24:32;;;;;;;5.13;0.80;;;;;;;17.80;81.05;99956.84;8307429;28;20034;-53
2022/09/15 16:28:32;;;;;;;5.43;1.00;;;;;;;17.76;78.91;99956.44;8304379;28;20034;-50
2022/09/15 16:32:33;;;;;;;4.93;1.05;;;;;;;17.74;80.90;99947.59;8315011;28;20037;-51
2022/09/15 16:36:35;;;;;;;2.60;0.90;;;;;;;17.72;83.24;99946.97;8314007;28;20041;-52
2022/09/15 16:40:36;;;;;;;6.22;1.13;;;;;;;17.70;84.88;99956.38;8304873;28;20030;-52
2022/09/15 16:44:37;;;;;;;6.00;1.00;;;;;;;17.66;85.25;99953.22;8292647;28;20503;-49
2022/09/15 16:48:40;;;;;;;6.43;1.15;;;;;;;17.62;83.51;99954.66;8286968;28;20128;-53
2022/09/15 16:52:40;;;;;;;6.45;1.13;;;;;;;17.61;83.89;99958.44;8291007;28;20073;-53
2022/09/15 16:56:41;;;;;;;5.50;0.82;;;;;;;17.55;83.15;99959.22;8289344;28;20034;-49
2022/09/15 17:00:42;;;;;;;3.17;0.88;;;;;;;17.52;84.30;99965.09;8290860;28;20100;-53
2022/09/15 17:04:43;;;;;;;2.67;1.02;;;;;;;17.45;84.92;99956.00;8289822;28;20552;-50
2022/09/15 17:08:44;;;;;;;6.05;0.90;;;;;;;17.37;85.45;99961.56;8291112;28;20498;-50
2022/09/15 17:12:45;;;;;;;3.90;1.00;;;;;;;17.39;84.69;99964.97;8289634;28;20258;-49
2022/09/15 17:16:51;;;;;;;7.50;1.02;;;;;;;17.36;83.21;99965.34;8286313;28;20129;-52
2022/09/15 17:20:51;;;;;;;5.20;1.45;;;;;;;17.36;83.51;99973.56;8284627;28;20049;-51
2022/09/15 17:24:52;;;;;;;9.32;1.35;;;;;;;17.38;83.21;99979.66;8290049;28;20133;-52
2022/09/15 17:28:54;;;;;;;7.93;1.10;;;;;;;17.37;84.12;99980.69;8289629;28;20066;-50
2022/09/15 17:33:07;;;;;;;7.68;1.27;;;;;;;17.31;84.14;99978.75;8290800;28;20041;-52
2022/09/15 17:37:07;;;;;;;11.32;3.50;;;;;;;17.30;84.53;99979.81;8284456;28;20042;-51
2022/09/15 17:41:14;;;;;;;20.60;6.50;;;;;;;17.24;85.87;99972.38;8283307;28;20061;-52
2022/09/15 17:45:36;;;;;;;7.40;1.60;;;;;;;17.28;86.89;99976.41;8289056;28;20482;-52
2022/09/15 17:49:37;;;;;;;7.57;1.13;;;;;;;17.21;88.17;99978.25;8281541;28;20407;-51
2022/09/15 17:53:37;;;;;;;7.20;1.13;;;;;;;17.17;88.08;99977.78;8282035;28;20110;-48
2022/09/15 17:57:38;;;;;;;6.75;1.08;;;;;;;17.09;88.69;99986.13;8282326;28;20443;-51
2022/09/15 18:01:38;;;;;;;9.63;1.33;;;;;;;17.11;89.12;99978.56;8283902;28;20053;-52
2022/09/15 18:05:38;;;;;;;15.93;2.03;;;;;;;17.13;87.48;99981.09;8287589;28;20042;-50
2022/09/15 18:09:39;;;;;;;63.33;19.35;;;;;;;17.09;86.95;99985.28;8285794;28;20041;-48
2022/09/15 18:13:39;;;;;;;8.47;4.77;;;;;;;17.11;86.82;99994.13;8283142;28;20092;-53
2022/09/15 18:17:39;;;;;;;9.98;1.33;;;;;;;17.12;87.61;99985.75;8290502;28;20352;-53
2022/09/15 18:21:40;;;;;;;6.53;1.17;;;;;;;17.07;88.44;100003.72;8289093;28;20117;-50
2022/09/15 18:25:41;;;;;;;7.05;1.30;;;;;;;17.03;87.83;100014.22;8284177;28;20760;-49
2022/09/15 18:29:41;;;;;;;8.48;1.45;;;;;;;17.00;89.06;100014.59;8286800;28;20044;-50
2022/09/15 18:33:42;;;;;;;7.53;1.60;;;;;;;17.03;89.04;100016.09;8289407;28;20054;-51
2022/09/15 18:37:43;;;;;;;9.07;1.30;;;;;;;16.99;88.92;100017.53;8288730;28;20042;-49
2022/09/15 18:41:44;;;;;;;10.43;1.08;;;;;;;17.04;81.99;100012.31;8281484;28;20288;-49
2022/09/15 18:45:44;;;;;;;7.38;1.30;;;;;;;16.99;83.03;100017.53;8286164;28;20046;-51
2022/09/15 18:49:45;;;;;;;2.20;0.82;;;;;;;16.99;80.81;100023.00;8271235;28;20116;-49
2022/09/15 18:53:45;;;;;;;3.63;1.13;;;;;;;16.89;81.56;100023.28;8281570;28;20111;-50
2022/09/15 18:57:47;;;;;;;5.55;1.30;;;;;;;16.86;82.52;100029.13;8275650;28;20061;-51
2022/09/15 19:01:47;;;;;;;9.43;1.38;;;;;;;16.84;81.35;100035.84;8275671;28;20042;-51
2022/09/15 19:05:47;;;;;;;3.40;0.90;;;;;;;16.79;82.00;100039.16;8290364;28;20503;-50
2022/09/15 19:09:50;;;;;;;9.88;1.02;;;;;;;16.74;81.42;100038.03;8282434;28;20084;-52
2022/09/15 19:13:52;;;;;;;4.85;1.30;;;;;;;16.71;82.89;100038.44;8273317;28;20464;-49
2022/09/15 19:17:52;;;;;;;6.43;1.60;;;;;;;16.68;82.48;100036.91;8299900;28;20045;-50
2022/09/15 19:21:53;;;;;;;12.07;1.48;;;;;;;16.64;81.26;100040.19;8267456;28;20058;-51
2022/09/15 19:25:53;;;;;;;6.18;1.08;;;;;;;16.61;81.62;100035.97;8275554;28;20057;-51
2022/09/15 19:29:54;;;;;;;7.35;1.00;;;;;;;16.57;81.74;100055.66;8288493;28;20518;-52
2022/09/15 19:33:54;;;;;;;4.80;1.20;;;;;;;16.36;82.85;100052.81;8289587;28;20823;-49
2022/09/15 19:37:55;;;;;;;10.15;1.02;;;;;;;16.23;82.79;100052.63;8288691;28;20499;-49
2022/09/15 19:41:55;;;;;;;7.27;1.33;;;;;;;16.12;82.78;100047.63;8290860;28;20042;-49